Hovedside
METAR-TAF:

METAR-TAF

Lufthavner :

São Pedro lufthavn

São Vicente, Kapp Verde

breddegrad: 16-49-59N, lengdegrad: 25-03-25W, høyde over havet: 20 m

Gjeldene værobservasjon

Denne rapporten ble laget for 42 minutter siden, klokken 20:00 UTC
Vind 22 kt fra Øst-nordøst
Temperatur 24°C
Luftfuktighet 65%
Trykk 1016 hPa
Sikt 10 km eller mer
Spredte skyer i en høyde av 2300 ft
Brutte skyer i en høyde av 20000 ft

METAR: GVSV 282000Z 06022KT 9999 SCT023 BKN200 24/17 Q1016 NOSIG

Tid: 19:42 (20:42 UTC)

Varsel

Denne rapporten ble laget for 3 timer og 42 minutter siden, klokken 17:00 UTC
Varsel gyldig fra 28. klokken 18 UTC til 29. klokken 24 UTC
Vind 25 kt fra Øst-nordøst
Sikt 10 km eller mer
Spredte skyer i en høyde av 2200 ft
Midlertidig
fra 29. klokken 10 UTC til 29. klokken 18 UTC
Vind 25 kt fra Øst-nordøst med vindkast opp mot 35 kt

TAF: GVSV 281700Z 2818/2924 06025KT 9999 SCT022 TEMPO 2910/2918 06025G35KT

Værobservasjoner og værvarsel for over 4000 flyplasser (METAR- og TAF-rapporter).

Tilgjengelige stasjoner er representert av de røde og gule prikkene på kartet.

Hold musepekeren over prikken for å se navnet på stasjonen.

Klikk så for å se værobservasjoner og -varsler.

For å forandre kartet kan du klikke på den grønne knappen med svart kryss for å zoome inn, på den grønne knappen med strek for å zoome ut, eller på de grønne pilene for å se tilstøtende kart.


METAR-TAF: